createdAt,value
2022-12-31T07:19:46.503Z,1.71
2022-12-31T07:22:16.863Z,1.93
2022-12-31T07:24:45.179Z,1.93
2022-12-31T07:27:34.077Z,1.93
2022-12-31T07:30:11.591Z,1.93
2022-12-31T07:33:19.891Z,1.94
2022-12-31T07:36:12.970Z,1.96
2022-12-31T07:38:41.147Z,2.00
2022-12-31T07:41:44.751Z,2.06
2022-12-31T07:44:21.726Z,2.10
2022-12-31T07:47:03.497Z,2.13
2022-12-31T07:49:33.427Z,2.17
2022-12-31T07:52:01.405Z,2.20
2022-12-31T07:54:29.248Z,2.23
2022-12-31T07:56:57.701Z,2.27
2022-12-31T07:59:37.300Z,2.34
2022-12-31T08:02:14.321Z,2.41
2022-12-31T08:05:34.195Z,2.51
2022-12-31T08:08:33.027Z,2.59
2022-12-31T08:11:58.929Z,2.66
2022-12-31T08:14:29.138Z,2.73
2022-12-31T08:16:57.689Z,2.80
2022-12-31T08:19:32.941Z,2.89
2022-12-31T08:22:28.719Z,2.96
2022-12-31T08:25:05.344Z,3.05
2022-12-31T08:28:01.057Z,3.12
2022-12-31T08:30:57.325Z,3.19
2022-12-31T08:44:59.713Z,3.79
2022-12-31T08:48:16.321Z,4.09
2022-12-31T08:50:45.633Z,4.10
2022-12-31T08:53:14.877Z,4.11
2022-12-31T08:55:44.916Z,4.13
2022-12-31T08:58:38.529Z,4.15
2022-12-31T09:01:09.299Z,4.16
2022-12-31T09:04:03.249Z,4.17
2022-12-31T09:06:37.508Z,4.18
2022-12-31T09:09:45.011Z,4.19
2022-12-31T09:12:43.458Z,4.21
2022-12-31T09:15:32.887Z,4.26
2022-12-31T09:18:02.208Z,4.32
2022-12-31T09:20:44.063Z,4.39
2022-12-31T09:23:14.283Z,4.48
2022-12-31T09:26:11.789Z,4.55
2022-12-31T09:29:01.363Z,4.64
2022-12-31T09:31:39.155Z,4.72
2022-12-31T09:34:51.364Z,4.81
2022-12-31T09:38:16.929Z,4.92
2022-12-31T09:41:14.984Z,5.08
2022-12-31T09:44:28.965Z,5.17
2022-12-31T09:50:29.319Z,5.39
2022-12-31T09:53:17.271Z,5.44
2022-12-31T09:56:06.422Z,5.52
2022-12-31T09:58:56.196Z,5.58
2022-12-31T10:02:03.652Z,5.68
2022-12-31T10:04:55.720Z,5.80
2022-12-31T10:07:37.229Z,5.89
2022-12-31T10:10:24.966Z,5.98
2022-12-31T10:13:21.563Z,6.06
2022-12-31T10:16:08.189Z,6.15
2022-12-31T10:19:21.186Z,6.23
2022-12-31T10:22:38.838Z,6.33
2022-12-31T10:25:42.380Z,6.46
2022-12-31T10:28:41.744Z,6.57
2022-12-31T10:31:41.991Z,6.68
2022-12-31T10:34:32.277Z,6.78
2022-12-31T10:37:25.600Z,6.85
2022-12-31T10:39:57.553Z,6.92
2022-12-31T10:42:37.335Z,6.98
2022-12-31T10:45:17.640Z,7.06
2022-12-31T10:48:30.265Z,7.15
2022-12-31T10:51:51.854Z,7.25
2022-12-31T10:54:45.510Z,7.35
2022-12-31T10:57:42.140Z,7.44
2022-12-31T11:00:22.578Z,7.53
2022-12-31T11:03:32.040Z,7.59
2022-12-31T11:06:41.129Z,7.67
2022-12-31T11:09:53.998Z,7.78
2022-12-31T11:13:00.094Z,7.88
2022-12-31T11:16:09.139Z,7.95
2022-12-31T11:19:21.135Z,8.00
2022-12-31T11:22:09.037Z,8.06
2022-12-31T11:25:13.208Z,8.11
2022-12-31T11:28:12.071Z,8.19
2022-12-31T11:31:15.072Z,8.28
2022-12-31T11:34:21.434Z,8.35
2022-12-31T11:37:22.999Z,8.45
2022-12-31T11:39:58.130Z,8.49
2022-12-31T11:42:42.256Z,8.54
2022-12-31T11:45:11.663Z,8.57
2022-12-31T11:48:29.742Z,8.59
2022-12-31T11:51:20.129Z,8.66
2022-12-31T11:54:15.424Z,8.74
2022-12-31T11:57:30.627Z,8.82
2022-12-31T12:00:26.405Z,8.88
2022-12-31T12:03:02.955Z,8.91
2022-12-31T12:05:34.753Z,8.92
2022-12-31T12:08:04.054Z,8.93
2022-12-31T12:10:42.895Z,8.97
2022-12-31T12:13:18.057Z,9.03
2022-12-31T12:16:03.078Z,9.07
2022-12-31T12:18:41.103Z,9.09
2022-12-31T12:21:17.313Z,9.09
2022-12-31T12:23:59.874Z,9.08
2022-12-31T12:26:45.658Z,9.08
2022-12-31T12:29:36.105Z,9.07
2022-12-31T12:32:19.471Z,9.02
2022-12-31T12:34:50.066Z,9.08
2022-12-31T12:37:30.121Z,9.09
2022-12-31T12:40:18.239Z,9.12
2022-12-31T12:42:50.002Z,9.13
2022-12-31T12:45:45.196Z,9.13
2022-12-31T12:48:40.227Z,9.11
2022-12-31T12:52:15.162Z,9.05
2022-12-31T12:54:59.809Z,8.99
2022-12-31T12:57:40.305Z,8.96
2022-12-31T13:00:33.114Z,8.90
2022-12-31T13:03:18.718Z,8.84
2022-12-31T13:09:15.521Z,8.78
2022-12-31T13:12:10.567Z,8.73
2022-12-31T13:14:58.636Z,8.69
2022-12-31T13:18:24.320Z,8.64
2022-12-31T13:21:15.466Z,8.58
2022-12-31T13:23:59.933Z,8.58
2022-12-31T13:27:14.202Z,8.59
2022-12-31T13:29:45.021Z,8.57
2022-12-31T13:32:32.885Z,8.54
2022-12-31T13:35:41.262Z,8.50
2022-12-31T13:38:26.969Z,8.47
2022-12-31T13:41:12.731Z,8.45
2022-12-31T13:43:56.346Z,8.44
2022-12-31T13:47:07.118Z,8.43
2022-12-31T13:50:19.682Z,8.42
2022-12-31T13:53:27.360Z,8.43
2022-12-31T13:56:02.136Z,8.41
2022-12-31T13:58:50.129Z,8.40
2022-12-31T14:01:30.701Z,8.37
2022-12-31T14:04:26.026Z,8.33
2022-12-31T14:07:22.212Z,8.28
2022-12-31T14:09:51.555Z,8.23
2022-12-31T14:12:55.163Z,8.23
2022-12-31T14:15:39.482Z,8.19
2022-12-31T14:18:57.637Z,8.12
2022-12-31T14:21:33.928Z,8.05
2022-12-31T14:24:29.696Z,7.98
2022-12-31T14:27:03.804Z,7.89
2022-12-31T14:29:58.605Z,7.82
2022-12-31T14:32:45.488Z,7.74
2022-12-31T14:35:41.402Z,7.66
2022-12-31T14:38:22.202Z,7.57
2022-12-31T14:41:38.265Z,7.47
2022-12-31T14:44:29.330Z,7.36
2022-12-31T14:47:37.439Z,7.26
2022-12-31T14:50:15.794Z,7.19
2022-12-31T14:53:27.640Z,7.12
2022-12-31T14:56:06.929Z,7.05
2022-12-31T14:58:41.661Z,6.98
2022-12-31T15:01:17.057Z,6.93
2022-12-31T15:03:46.503Z,6.87
2022-12-31T15:06:25.062Z,6.80
2022-12-31T15:09:18.632Z,6.70
2022-12-31T15:12:06.145Z,6.62
2022-12-31T15:15:04.359Z,6.55
2022-12-31T15:18:03.886Z,6.47
2022-12-31T15:20:59.597Z,6.42
2022-12-31T15:23:37.951Z,6.34
2022-12-31T15:26:08.723Z,6.29
2022-12-31T15:28:41.189Z,6.23
2022-12-31T15:31:19.867Z,6.17
2022-12-31T15:34:05.125Z,6.14
2022-12-31T15:36:39.596Z,6.11
2022-12-31T15:39:11.033Z,6.09
2022-12-31T15:45:00.644Z,5.97
2022-12-31T15:47:35.289Z,5.92
2022-12-31T15:50:23.444Z,5.85
2022-12-31T15:53:03.409Z,5.78
2022-12-31T15:55:48.805Z,5.71
2022-12-31T15:58:23.234Z,5.65
2022-12-31T16:01:22.031Z,5.61
2022-12-31T16:04:21.698Z,5.55
2022-12-31T16:06:51.435Z,5.47
2022-12-31T16:09:28.373Z,5.41
2022-12-31T16:11:58.845Z,5.35
2022-12-31T16:14:51.050Z,5.31
2022-12-31T16:17:40.065Z,5.30
2022-12-31T16:20:30.609Z,5.29
2022-12-31T16:23:03.207Z,5.25
2022-12-31T16:25:33.846Z,5.21
2022-12-31T16:28:03.737Z,5.18
2022-12-31T16:30:35.984Z,5.14
2022-12-31T16:33:11.817Z,5.10
2022-12-31T16:35:40.547Z,5.04
2022-12-31T16:38:18.042Z,4.98
2022-12-31T16:41:01.933Z,4.94
2022-12-31T16:43:38.531Z,4.90
2022-12-31T16:46:27.627Z,4.85
2022-12-31T16:49:05.681Z,4.82
2022-12-31T16:51:37.908Z,4.80
2022-12-31T16:54:36.820Z,4.80
2022-12-31T16:57:06.679Z,4.82
2022-12-31T16:59:44.766Z,4.83
2022-12-31T17:02:40.037Z,4.86
2022-12-31T17:05:24.763Z,4.87
2022-12-31T17:07:53.487Z,4.85
2022-12-31T17:10:24.610Z,4.82
2022-12-31T17:13:28.331Z,4.75
2022-12-31T17:15:48.937Z,4.70
2022-12-31T17:18:38.319Z,4.67
2022-12-31T17:21:10.128Z,4.67
2022-12-31T17:23:40.116Z,4.69
2022-12-31T17:26:16.093Z,4.70
2022-12-31T17:28:52.665Z,4.69
2022-12-31T17:31:40.782Z,4.68
2022-12-31T17:34:15.621Z,4.67
2022-12-31T17:37:11.695Z,4.65
2022-12-31T17:39:53.898Z,4.63
2022-12-31T17:42:34.562Z,4.62
2022-12-31T17:45:21.272Z,4.61
2022-12-31T17:47:54.076Z,4.59
2022-12-31T17:50:27.612Z,4.55
2022-12-31T17:53:11.332Z,4.51
2022-12-31T17:55:42.723Z,4.44
2022-12-31T17:58:30.087Z,4.39
2022-12-31T18:00:59.815Z,4.35
2022-12-31T18:03:28.550Z,4.33
2022-12-31T18:05:57.481Z,4.33
2022-12-31T18:08:26.106Z,4.33
2022-12-31T18:10:55.248Z,4.37
2022-12-31T18:13:26.218Z,4.41
2022-12-31T18:15:55.655Z,4.41
2022-12-31T18:18:30.297Z,4.40
2022-12-31T18:21:06.306Z,4.39
2022-12-31T18:23:42.209Z,4.38
2022-12-31T18:26:18.920Z,4.37
2022-12-31T18:28:48.457Z,4.33
2022-12-31T18:31:29.192Z,4.31
2022-12-31T18:33:59.583Z,4.31
2022-12-31T18:36:28.994Z,4.29
2022-12-31T18:38:57.642Z,4.29
2022-12-31T18:41:28.254Z,4.25
2022-12-31T18:43:57.938Z,4.15
2022-12-31T18:46:27.874Z,4.06
2022-12-31T18:48:56.728Z,3.98
2022-12-31T18:51:31.736Z,3.94
2022-12-31T18:54:01.788Z,3.93
2022-12-31T18:56:31.559Z,3.91
2022-12-31T18:59:00.367Z,3.91
2022-12-31T19:01:38.563Z,3.91
2022-12-31T19:04:26.521Z,3.89
2022-12-31T19:06:56.674Z,3.85
2022-12-31T19:12:15.306Z,3.77
2022-12-31T19:14:44.306Z,3.70
2022-12-31T19:17:12.979Z,3.66
2022-12-31T19:19:41.697Z,3.63
2022-12-31T19:22:15.745Z,3.60
2022-12-31T19:24:44.229Z,3.58
2022-12-31T19:27:13.201Z,3.56
2022-12-31T19:29:41.897Z,3.54
2022-12-31T19:32:10.527Z,3.53
2022-12-31T19:34:39.272Z,3.51
2022-12-31T19:37:12.516Z,3.50
2022-12-31T19:39:41.132Z,3.48
2022-12-31T19:42:15.594Z,3.48
2022-12-31T19:44:44.192Z,3.47
2022-12-31T19:47:13.667Z,3.47
2022-12-31T19:49:42.298Z,3.47
2022-12-31T19:52:11.510Z,3.47
2022-12-31T19:54:40.133Z,3.46
2022-12-31T19:57:08.807Z,3.44
2022-12-31T19:59:37.608Z,3.42
2022-12-31T20:02:06.379Z,3.40
2022-12-31T20:04:35.253Z,3.37
2022-12-31T20:07:04.130Z,3.35
2022-12-31T20:09:35.236Z,3.31
2022-12-31T20:12:04.043Z,3.27
2022-12-31T20:14:35.136Z,3.24
2022-12-31T20:17:03.932Z,3.21
2022-12-31T20:19:33.025Z,3.20
2022-12-31T20:22:02.016Z,3.20
2022-12-31T20:24:30.931Z,3.19
2022-12-31T20:26:59.780Z,3.16
2022-12-31T20:29:28.576Z,3.15
2022-12-31T20:31:57.926Z,3.11
2022-12-31T20:34:26.969Z,3.08
2022-12-31T20:36:58.131Z,3.05
2022-12-31T20:39:27.029Z,3.01
2022-12-31T20:41:56.782Z,3.00
2022-12-31T20:44:25.478Z,2.99
2022-12-31T20:46:55.006Z,2.98
2022-12-31T20:49:44.246Z,2.94
2022-12-31T20:52:12.671Z,2.90
2022-12-31T20:54:44.440Z,2.87
2022-12-31T20:57:13.242Z,2.84
2022-12-31T20:59:41.987Z,2.80
2022-12-31T21:02:39.176Z,2.75
2022-12-31T21:05:05.477Z,2.71
2022-12-31T21:07:34.630Z,2.69
2022-12-31T21:10:05.000Z,2.69
2022-12-31T21:12:53.318Z,2.69
2022-12-31T21:15:24.953Z,2.71
2022-12-31T21:17:53.833Z,2.72
2022-12-31T21:20:22.501Z,2.75
2022-12-31T21:22:51.274Z,2.77
2022-12-31T21:25:20.171Z,2.76
2022-12-31T21:27:48.918Z,2.77
2022-12-31T21:30:20.837Z,2.77
2022-12-31T21:32:50.288Z,2.76
2022-12-31T21:38:10.676Z,2.76
2022-12-31T21:40:39.281Z,2.78
2022-12-31T21:43:10.232Z,2.79
2022-12-31T21:45:38.985Z,2.82
2022-12-31T21:48:25.245Z,2.83
2022-12-31T21:50:56.585Z,2.82
2022-12-31T21:53:30.453Z,2.80
2022-12-31T21:56:09.968Z,2.75
2022-12-31T21:58:44.256Z,2.70
2022-12-31T22:01:40.286Z,2.69
2022-12-31T22:04:35.223Z,2.67
2022-12-31T22:07:00.357Z,2.66
2022-12-31T22:09:29.107Z,2.64
2022-12-31T22:11:57.659Z,2.63
2022-12-31T22:14:26.522Z,2.62
2022-12-31T22:16:55.203Z,2.62
2022-12-31T22:19:23.733Z,2.61
2022-12-31T22:21:52.483Z,2.60
2022-12-31T22:24:21.112Z,2.59
2022-12-31T22:26:56.711Z,2.57
2022-12-31T22:29:26.826Z,2.54
2022-12-31T22:32:01.051Z,2.51
2022-12-31T22:34:30.056Z,2.48
2022-12-31T22:37:00.113Z,2.45
2022-12-31T22:39:43.295Z,2.43
2022-12-31T22:42:13.427Z,2.41
2022-12-31T22:44:42.068Z,2.37
2022-12-31T22:47:10.718Z,2.35
2022-12-31T22:49:40.882Z,2.35
2022-12-31T22:52:09.631Z,2.36
2022-12-31T22:54:38.081Z,2.37
2022-12-31T22:57:06.838Z,2.38
2022-12-31T22:59:35.967Z,2.36
2022-12-31T23:02:07.235Z,2.37
2022-12-31T23:04:35.872Z,2.40
2022-12-31T23:07:04.597Z,2.42
2022-12-31T23:09:52.214Z,2.42
2022-12-31T23:12:20.905Z,2.40
2022-12-31T23:15:07.654Z,2.37
2022-12-31T23:17:54.475Z,2.35
2022-12-31T23:20:43.616Z,2.33
2022-12-31T23:23:16.466Z,2.30
2022-12-31T23:25:49.052Z,2.25
2022-12-31T23:28:21.865Z,2.19
2022-12-31T23:30:53.824Z,2.14
2022-12-31T23:33:27.026Z,2.13
2022-12-31T23:36:06.693Z,2.16
2022-12-31T23:38:38.975Z,2.16
2022-12-31T23:41:16.279Z,2.13
2022-12-31T23:43:45.854Z,2.10
2022-12-31T23:46:15.044Z,2.06
2022-12-31T23:48:43.945Z,2.04
2022-12-31T23:51:12.788Z,2.02
2022-12-31T23:53:42.682Z,2.02
2022-12-31T23:56:23.408Z,2.02
2022-12-31T23:58:56.023Z,2.01
